sensor_id;sensor_type;location;lat;lon;timestamp;P1;durP1;ratioP1;P2;durP2;ratioP2
21831;SDS011;11078;49.872;6.188;2022-08-21T00:01:10;2.47;;;2.05;;
21831;SDS011;11078;49.872;6.188;2022-08-21T00:03:39;6.05;;;2.28;;
21831;SDS011;11078;49.872;6.188;2022-08-21T00:06:05;5.60;;;2.22;;
21831;SDS011;11078;49.872;6.188;2022-08-21T00:08:32;4.10;;;2.13;;
21831;SDS011;11078;49.872;6.188;2022-08-21T00:10:58;2.85;;;1.75;;
21831;SDS011;11078;49.872;6.188;2022-08-21T00:13:24;4.97;;;1.95;;
21831;SDS011;11078;49.872;6.188;2022-08-21T00:15:51;3.33;;;2.00;;
21831;SDS011;11078;49.872;6.188;2022-08-21T00:18:17;4.93;;;2.28;;
21831;SDS011;11078;49.872;6.188;2022-08-21T00:20:43;4.65;;;2.40;;
21831;SDS011;11078;49.872;6.188;2022-08-21T00:23:10;3.00;;;1.95;;
21831;SDS011;11078;49.872;6.188;2022-08-21T00:25:37;4.00;;;1.98;;
21831;SDS011;11078;49.872;6.188;2022-08-21T00:28:03;4.43;;;2.13;;
21831;SDS011;11078;49.872;6.188;2022-08-21T00:30:31;4.38;;;2.22;;
21831;SDS011;11078;49.872;6.188;2022-08-21T00:32:58;5.28;;;2.35;;
21831;SDS011;11078;49.872;6.188;2022-08-21T00:35:27;2.00;;;1.80;;
21831;SDS011;11078;49.872;6.188;2022-08-21T00:37:56;2.33;;;1.75;;
21831;SDS011;11078;49.872;6.188;2022-08-21T00:40:26;3.65;;;2.13;;
21831;SDS011;11078;49.872;6.188;2022-08-21T00:42:55;2.75;;;1.90;;
21831;SDS011;11078;49.872;6.188;2022-08-21T00:45:21;2.38;;;2.10;;
21831;SDS011;11078;49.872;6.188;2022-08-21T00:47:48;4.60;;;1.90;;
21831;SDS011;11078;49.872;6.188;2022-08-21T00:50:15;8.18;;;2.28;;
21831;SDS011;11078;49.872;6.188;2022-08-21T00:52:42;6.28;;;1.90;;
21831;SDS011;11078;49.872;6.188;2022-08-21T00:55:09;4.13;;;1.92;;
21831;SDS011;11078;49.872;6.188;2022-08-21T00:57:39;2.88;;;1.80;;
21831;SDS011;11078;49.872;6.188;2022-08-21T01:00:12;6.97;;;2.40;;
21831;SDS011;11078;49.872;6.188;2022-08-21T01:02:42;3.78;;;1.85;;
21831;SDS011;11078;49.872;6.188;2022-08-21T01:05:09;3.65;;;1.88;;
21831;SDS011;11078;49.872;6.188;2022-08-21T01:07:36;6.53;;;2.17;;
21831;SDS011;11078;49.872;6.188;2022-08-21T01:10:04;3.17;;;1.92;;
21831;SDS011;11078;49.872;6.188;2022-08-21T01:12:32;3.08;;;2.00;;
21831;SDS011;11078;49.872;6.188;2022-08-21T01:15:00;3.47;;;2.08;;
21831;SDS011;11078;49.872;6.188;2022-08-21T01:17:28;2.70;;;1.83;;
21831;SDS011;11078;49.872;6.188;2022-08-21T01:19:57;3.90;;;1.88;;
21831;SDS011;11078;49.872;6.188;2022-08-21T01:22:23;3.78;;;2.00;;
21831;SDS011;11078;49.872;6.188;2022-08-21T01:24:50;2.45;;;1.80;;
21831;SDS011;11078;49.872;6.188;2022-08-21T01:27:16;6.18;;;1.90;;
21831;SDS011;11078;49.872;6.188;2022-08-21T01:29:43;3.67;;;2.05;;
21831;SDS011;11078;49.872;6.188;2022-08-21T01:32:14;4.07;;;2.00;;
21831;SDS011;11078;49.872;6.188;2022-08-21T01:34:44;4.15;;;2.03;;
21831;SDS011;11078;49.872;6.188;2022-08-21T01:37:12;4.38;;;2.22;;
21831;SDS011;11078;49.872;6.188;2022-08-21T01:39:40;3.03;;;2.05;;
21831;SDS011;11078;49.872;6.188;2022-08-21T01:42:06;6.82;;;2.17;;
21831;SDS011;11078;49.872;6.188;2022-08-21T01:44:33;4.35;;;2.00;;
21831;SDS011;11078;49.872;6.188;2022-08-21T01:47:00;3.42;;;2.10;;
21831;SDS011;11078;49.872;6.188;2022-08-21T01:49:27;4.93;;;2.33;;
21831;SDS011;11078;49.872;6.188;2022-08-21T01:51:53;3.45;;;1.90;;
21831;SDS011;11078;49.872;6.188;2022-08-21T01:54:20;5.03;;;2.20;;
21831;SDS011;11078;49.872;6.188;2022-08-21T01:56:47;2.88;;;2.05;;
21831;SDS011;11078;49.872;6.188;2022-08-21T01:59:15;7.32;;;2.22;;
21831;SDS011;11078;49.872;6.188;2022-08-21T02:01:42;3.38;;;1.92;;
21831;SDS011;11078;49.872;6.188;2022-08-21T02:04:08;2.88;;;2.00;;
21831;SDS011;11078;49.872;6.188;2022-08-21T02:06:35;3.60;;;2.10;;
21831;SDS011;11078;49.872;6.188;2022-08-21T02:09:03;4.72;;;1.92;;
21831;SDS011;11078;49.872;6.188;2022-08-21T02:11:30;6.07;;;1.77;;
21831;SDS011;11078;49.872;6.188;2022-08-21T02:13:56;2.75;;;2.03;;
21831;SDS011;11078;49.872;6.188;2022-08-21T02:16:22;5.03;;;2.22;;
21831;SDS011;11078;49.872;6.188;2022-08-21T02:18:48;3.65;;;1.80;;
21831;SDS011;11078;49.872;6.188;2022-08-21T02:21:14;3.67;;;2.13;;
21831;SDS011;11078;49.872;6.188;2022-08-21T02:23:40;1.98;;;1.77;;
21831;SDS011;11078;49.872;6.188;2022-08-21T02:26:07;2.58;;;1.90;;
21831;SDS011;11078;49.872;6.188;2022-08-21T02:28:34;5.80;;;2.10;;
21831;SDS011;11078;49.872;6.188;2022-08-21T02:31:01;4.72;;;1.90;;
21831;SDS011;11078;49.872;6.188;2022-08-21T02:33:27;2.45;;;1.95;;
21831;SDS011;11078;49.872;6.188;2022-08-21T02:35:54;3.97;;;2.20;;
21831;SDS011;11078;49.872;6.188;2022-08-21T02:38:23;4.45;;;2.38;;
21831;SDS011;11078;49.872;6.188;2022-08-21T02:40:55;4.43;;;2.05;;
21831;SDS011;11078;49.872;6.188;2022-08-21T02:43:22;5.05;;;2.75;;
21831;SDS011;11078;49.872;6.188;2022-08-21T02:45:51;4.70;;;2.47;;
21831;SDS011;11078;49.872;6.188;2022-08-21T02:48:19;5.07;;;2.30;;
21831;SDS011;11078;49.872;6.188;2022-08-21T02:50:50;3.78;;;2.10;;
21831;SDS011;11078;49.872;6.188;2022-08-21T02:53:18;5.63;;;2.40;;
21831;SDS011;11078;49.872;6.188;2022-08-21T02:55:45;2.90;;;2.13;;
21831;SDS011;11078;49.872;6.188;2022-08-21T02:58:13;3.78;;;2.22;;
21831;SDS011;11078;49.872;6.188;2022-08-21T03:00:40;2.75;;;2.08;;
21831;SDS011;11078;49.872;6.188;2022-08-21T03:03:09;4.13;;;2.30;;
21831;SDS011;11078;49.872;6.188;2022-08-21T03:05:35;3.13;;;2.03;;
21831;SDS011;11078;49.872;6.188;2022-08-21T03:08:04;2.72;;;2.10;;
21831;SDS011;11078;49.872;6.188;2022-08-21T03:10:34;3.97;;;2.00;;
21831;SDS011;11078;49.872;6.188;2022-08-21T03:13:01;3.80;;;2.00;;
21831;SDS011;11078;49.872;6.188;2022-08-21T03:15:28;3.47;;;2.10;;
21831;SDS011;11078;49.872;6.188;2022-08-21T03:17:54;3.25;;;2.10;;
21831;SDS011;11078;49.872;6.188;2022-08-21T03:20:22;3.90;;;2.28;;
21831;SDS011;11078;49.872;6.188;2022-08-21T03:22:51;3.30;;;2.47;;
21831;SDS011;11078;49.872;6.188;2022-08-21T03:25:19;5.15;;;2.10;;
21831;SDS011;11078;49.872;6.188;2022-08-21T03:27:46;3.13;;;2.08;;
21831;SDS011;11078;49.872;6.188;2022-08-21T03:30:13;3.45;;;2.28;;
21831;SDS011;11078;49.872;6.188;2022-08-21T03:32:41;3.78;;;2.03;;
21831;SDS011;11078;49.872;6.188;2022-08-21T03:35:08;2.42;;;2.00;;
21831;SDS011;11078;49.872;6.188;2022-08-21T03:37:34;4.65;;;2.03;;
21831;SDS011;11078;49.872;6.188;2022-08-21T03:40:02;4.78;;;2.13;;
21831;SDS011;11078;49.872;6.188;2022-08-21T03:42:30;2.72;;;1.95;;
21831;SDS011;11078;49.872;6.188;2022-08-21T03:44:56;3.35;;;1.88;;
21831;SDS011;11078;49.872;6.188;2022-08-21T03:47:22;2.42;;;2.00;;
21831;SDS011;11078;49.872;6.188;2022-08-21T03:49:48;2.28;;;1.63;;
21831;SDS011;11078;49.872;6.188;2022-08-21T03:52:32;2.92;;;1.92;;
21831;SDS011;11078;49.872;6.188;2022-08-21T03:54:59;4.22;;;1.80;;
21831;SDS011;11078;49.872;6.188;2022-08-21T03:57:25;4.07;;;2.03;;
21831;SDS011;11078;49.872;6.188;2022-08-21T03:59:51;2.97;;;1.95;;
21831;SDS011;11078;49.872;6.188;2022-08-21T04:02:17;3.30;;;2.35;;
21831;SDS011;11078;49.872;6.188;2022-08-21T04:04:45;4.13;;;1.98;;
21831;SDS011;11078;49.872;6.188;2022-08-21T04:07:11;5.43;;;2.30;;
21831;SDS011;11078;49.872;6.188;2022-08-21T04:09:37;2.20;;;1.60;;
21831;SDS011;11078;49.872;6.188;2022-08-21T04:12:04;4.82;;;2.30;;
21831;SDS011;11078;49.872;6.188;2022-08-21T04:14:30;2.33;;;1.73;;
21831;SDS011;11078;49.872;6.188;2022-08-21T04:16:56;3.30;;;1.98;;
21831;SDS011;11078;49.872;6.188;2022-08-21T04:19:22;2.90;;;2.00;;
21831;SDS011;11078;49.872;6.188;2022-08-21T04:21:48;2.88;;;2.13;;
21831;SDS011;11078;49.872;6.188;2022-08-21T04:24:14;2.22;;;1.80;;
21831;SDS011;11078;49.872;6.188;2022-08-21T04:26:40;2.25;;;2.03;;
21831;SDS011;11078;49.872;6.188;2022-08-21T04:29:07;5.03;;;2.08;;
21831;SDS011;11078;49.872;6.188;2022-08-21T04:31:33;2.75;;;1.92;;
21831;SDS011;11078;49.872;6.188;2022-08-21T04:34:01;5.15;;;1.90;;
21831;SDS011;11078;49.872;6.188;2022-08-21T04:36:28;4.00;;;2.00;;
21831;SDS011;11078;49.872;6.188;2022-08-21T04:38:54;1.88;;;1.77;;
21831;SDS011;11078;49.872;6.188;2022-08-21T04:41:20;3.42;;;1.98;;
21831;SDS011;11078;49.872;6.188;2022-08-21T04:43:46;2.65;;;1.95;;
21831;SDS011;11078;49.872;6.188;2022-08-21T04:46:12;2.85;;;2.05;;
21831;SDS011;11078;49.872;6.188;2022-08-21T04:48:38;6.88;;;2.28;;
21831;SDS011;11078;49.872;6.188;2022-08-21T04:56:35;2.75;;;2.15;;
21831;SDS011;11078;49.872;6.188;2022-08-21T04:59:10;1.90;;;1.70;;
21831;SDS011;11078;49.872;6.188;2022-08-21T05:01:40;5.70;;;2.33;;
21831;SDS011;11078;49.872;6.188;2022-08-21T05:04:07;2.88;;;2.20;;
21831;SDS011;11078;49.872;6.188;2022-08-21T05:06:36;2.53;;;1.90;;
21831;SDS011;11078;49.872;6.188;2022-08-21T05:09:03;5.07;;;2.08;;
21831;SDS011;11078;49.872;6.188;2022-08-21T05:11:30;6.47;;;2.28;;
21831;SDS011;11078;49.872;6.188;2022-08-21T05:13:57;3.85;;;1.80;;
21831;SDS011;11078;49.872;6.188;2022-08-21T05:16:23;5.97;;;1.90;;
21831;SDS011;11078;49.872;6.188;2022-08-21T05:18:49;3.55;;;2.15;;
21831;SDS011;11078;49.872;6.188;2022-08-21T05:21:15;4.25;;;2.03;;
21831;SDS011;11078;49.872;6.188;2022-08-21T05:23:41;2.58;;;1.95;;
21831;SDS011;11078;49.872;6.188;2022-08-21T05:26:07;1.80;;;1.70;;
21831;SDS011;11078;49.872;6.188;2022-08-21T05:28:33;4.05;;;2.00;;
21831;SDS011;11078;49.872;6.188;2022-08-21T05:30:59;2.83;;;2.40;;
21831;SDS011;11078;49.872;6.188;2022-08-21T05:33:26;4.20;;;2.20;;
21831;SDS011;11078;49.872;6.188;2022-08-21T05:35:53;4.13;;;2.40;;
21831;SDS011;11078;49.872;6.188;2022-08-21T05:38:23;4.13;;;2.20;;
21831;SDS011;11078;49.872;6.188;2022-08-21T05:40:53;4.30;;;2.17;;
21831;SDS011;11078;49.872;6.188;2022-08-21T05:43:19;3.75;;;2.10;;
21831;SDS011;11078;49.872;6.188;2022-08-21T05:45:46;4.68;;;2.80;;
21831;SDS011;11078;49.872;6.188;2022-08-21T05:48:15;5.75;;;2.20;;
21831;SDS011;11078;49.872;6.188;2022-08-21T05:50:43;5.55;;;2.38;;
21831;SDS011;11078;49.872;6.188;2022-08-21T05:53:11;4.53;;;2.38;;
21831;SDS011;11078;49.872;6.188;2022-08-21T05:55:38;6.80;;;2.10;;
21831;SDS011;11078;49.872;6.188;2022-08-21T05:58:04;4.47;;;2.47;;
21831;SDS011;11078;49.872;6.188;2022-08-21T06:00:30;3.63;;;2.60;;
21831;SDS011;11078;49.872;6.188;2022-08-21T06:02:57;5.45;;;2.50;;
21831;SDS011;11078;49.872;6.188;2022-08-21T06:05:23;4.55;;;2.80;;
21831;SDS011;11078;49.872;6.188;2022-08-21T06:07:49;4.15;;;2.60;;
21831;SDS011;11078;49.872;6.188;2022-08-21T06:10:15;3.22;;;2.58;;
21831;SDS011;11078;49.872;6.188;2022-08-21T06:12:41;8.32;;;3.42;;
21831;SDS011;11078;49.872;6.188;2022-08-21T06:15:07;3.30;;;3.00;;
21831;SDS011;11078;49.872;6.188;2022-08-21T06:17:33;3.15;;;2.67;;
21831;SDS011;11078;49.872;6.188;2022-08-21T06:19:59;4.60;;;2.60;;
21831;SDS011;11078;49.872;6.188;2022-08-21T06:22:25;5.75;;;2.83;;
21831;SDS011;11078;49.872;6.188;2022-08-21T06:24:51;3.75;;;2.70;;
21831;SDS011;11078;49.872;6.188;2022-08-21T06:27:17;3.67;;;2.40;;
21831;SDS011;11078;49.872;6.188;2022-08-21T06:29:43;3.60;;;2.50;;
21831;SDS011;11078;49.872;6.188;2022-08-21T06:32:19;3.83;;;2.72;;
21831;SDS011;11078;49.872;6.188;2022-08-21T06:34:45;4.65;;;2.38;;
21831;SDS011;11078;49.872;6.188;2022-08-21T06:37:11;4.50;;;2.15;;
21831;SDS011;11078;49.872;6.188;2022-08-21T06:39:37;4.72;;;2.30;;
21831;SDS011;11078;49.872;6.188;2022-08-21T06:42:03;3.28;;;2.25;;
21831;SDS011;11078;49.872;6.188;2022-08-21T06:44:29;3.67;;;2.10;;
21831;SDS011;11078;49.872;6.188;2022-08-21T06:46:55;2.63;;;2.22;;
21831;SDS011;11078;49.872;6.188;2022-08-21T06:49:21;3.50;;;2.17;;
21831;SDS011;11078;49.872;6.188;2022-08-21T06:51:47;5.18;;;2.22;;
21831;SDS011;11078;49.872;6.188;2022-08-21T06:54:13;3.90;;;2.30;;
21831;SDS011;11078;49.872;6.188;2022-08-21T06:56:39;2.30;;;2.10;;
21831;SDS011;11078;49.872;6.188;2022-08-21T06:59:05;4.15;;;2.08;;
21831;SDS011;11078;49.872;6.188;2022-08-21T07:01:31;4.75;;;2.50;;
21831;SDS011;11078;49.872;6.188;2022-08-21T07:03:58;2.75;;;1.90;;
21831;SDS011;11078;49.872;6.188;2022-08-21T07:06:24;5.05;;;2.60;;
21831;SDS011;11078;49.872;6.188;2022-08-21T07:08:50;2.95;;;1.85;;
21831;SDS011;11078;49.872;6.188;2022-08-21T07:11:17;4.38;;;2.00;;
21831;SDS011;11078;49.872;6.188;2022-08-21T07:13:46;3.95;;;2.33;;
21831;SDS011;11078;49.872;6.188;2022-08-21T07:16:12;4.55;;;2.20;;
21831;SDS011;11078;49.872;6.188;2022-08-21T07:18:41;4.88;;;2.28;;
21831;SDS011;11078;49.872;6.188;2022-08-21T07:21:07;4.50;;;2.20;;
21831;SDS011;11078;49.872;6.188;2022-08-21T07:23:36;4.35;;;2.17;;
21831;SDS011;11078;49.872;6.188;2022-08-21T07:26:03;3.85;;;2.22;;
21831;SDS011;11078;49.872;6.188;2022-08-21T07:28:29;6.47;;;2.40;;
21831;SDS011;11078;49.872;6.188;2022-08-21T07:30:56;3.80;;;2.67;;
21831;SDS011;11078;49.872;6.188;2022-08-21T07:33:24;3.75;;;2.28;;
21831;SDS011;11078;49.872;6.188;2022-08-21T07:35:51;6.05;;;2.05;;
21831;SDS011;11078;49.872;6.188;2022-08-21T07:38:17;4.75;;;2.33;;
21831;SDS011;11078;49.872;6.188;2022-08-21T07:40:46;5.28;;;2.50;;
21831;SDS011;11078;49.872;6.188;2022-08-21T07:43:19;3.63;;;1.98;;
21831;SDS011;11078;49.872;6.188;2022-08-21T07:45:46;5.40;;;2.60;;
21831;SDS011;11078;49.872;6.188;2022-08-21T07:48:15;6.78;;;2.20;;
21831;SDS011;11078;49.872;6.188;2022-08-21T07:50:42;4.05;;;2.33;;
21831;SDS011;11078;49.872;6.188;2022-08-21T07:53:08;6.20;;;2.42;;
21831;SDS011;11078;49.872;6.188;2022-08-21T07:55:34;3.45;;;2.00;;
21831;SDS011;11078;49.872;6.188;2022-08-21T07:58:00;7.53;;;2.22;;
21831;SDS011;11078;49.872;6.188;2022-08-21T08:00:27;4.53;;;2.28;;
21831;SDS011;11078;49.872;6.188;2022-08-21T08:02:53;2.85;;;1.90;;
21831;SDS011;11078;49.872;6.188;2022-08-21T08:05:22;8.32;;;2.30;;
21831;SDS011;11078;49.872;6.188;2022-08-21T08:07:51;3.58;;;1.90;;
21831;SDS011;11078;49.872;6.188;2022-08-21T08:10:17;3.13;;;2.10;;
21831;SDS011;11078;49.872;6.188;2022-08-21T08:12:44;8.68;;;2.25;;
21831;SDS011;11078;49.872;6.188;2022-08-21T08:15:13;4.78;;;2.30;;
21831;SDS011;11078;49.872;6.188;2022-08-21T08:17:41;4.95;;;2.05;;
21831;SDS011;11078;49.872;6.188;2022-08-21T08:20:09;7.70;;;1.83;;
21831;SDS011;11078;49.872;6.188;2022-08-21T08:22:38;2.67;;;1.65;;
21831;SDS011;11078;49.872;6.188;2022-08-21T08:25:07;3.80;;;2.00;;
21831;SDS011;11078;49.872;6.188;2022-08-21T08:27:37;4.35;;;2.00;;
21831;SDS011;11078;49.872;6.188;2022-08-21T08:30:04;6.07;;;2.08;;
21831;SDS011;11078;49.872;6.188;2022-08-21T08:32:31;5.20;;;1.75;;
21831;SDS011;11078;49.872;6.188;2022-08-21T08:34:58;3.80;;;2.03;;
21831;SDS011;11078;49.872;6.188;2022-08-21T08:37:24;6.68;;;2.08;;
21831;SDS011;11078;49.872;6.188;2022-08-21T08:39:51;2.97;;;1.80;;
21831;SDS011;11078;49.872;6.188;2022-08-21T08:42:20;5.78;;;2.17;;
21831;SDS011;11078;49.872;6.188;2022-08-21T08:44:52;2.13;;;1.67;;
21831;SDS011;11078;49.872;6.188;2022-08-21T08:47:22;4.38;;;1.73;;
21831;SDS011;11078;49.872;6.188;2022-08-21T08:52:37;5.60;;;1.90;;
21831;SDS011;11078;49.872;6.188;2022-08-21T08:57:55;6.18;;;1.77;;
21831;SDS011;11078;49.872;6.188;2022-08-21T09:00:22;3.05;;;1.27;;
21831;SDS011;11078;49.872;6.188;2022-08-21T09:02:51;5.63;;;1.52;;
21831;SDS011;11078;49.872;6.188;2022-08-21T09:05:22;3.00;;;1.50;;
21831;SDS011;11078;49.872;6.188;2022-08-21T09:07:55;6.30;;;1.52;;
21831;SDS011;11078;49.872;6.188;2022-08-21T09:10:38;2.90;;;1.48;;
21831;SDS011;11078;49.872;6.188;2022-08-21T09:13:19;2.72;;;1.05;;
21831;SDS011;11078;49.872;6.188;2022-08-21T09:16:04;3.90;;;1.60;;
21831;SDS011;11078;49.872;6.188;2022-08-21T09:18:50;3.00;;;1.30;;
21831;SDS011;11078;49.872;6.188;2022-08-21T09:27:15;2.25;;;1.33;;
21831;SDS011;11078;49.872;6.188;2022-08-21T09:29:44;4.40;;;1.40;;
21831;SDS011;11078;49.872;6.188;2022-08-21T09:32:21;5.22;;;1.40;;
21831;SDS011;11078;49.872;6.188;2022-08-21T09:37:47;6.05;;;1.50;;
21831;SDS011;11078;49.872;6.188;2022-08-21T09:40:30;5.53;;;1.65;;
21831;SDS011;11078;49.872;6.188;2022-08-21T09:43:06;1.77;;;1.35;;
21831;SDS011;11078;49.872;6.188;2022-08-21T09:45:42;5.18;;;1.70;;
21831;SDS011;11078;49.872;6.188;2022-08-21T09:48:11;3.70;;;1.30;;
21831;SDS011;11078;49.872;6.188;2022-08-21T09:50:39;4.30;;;1.50;;
21831;SDS011;11078;49.872;6.188;2022-08-21T09:53:13;2.67;;;1.50;;
21831;SDS011;11078;49.872;6.188;2022-08-21T09:55:48;4.85;;;1.38;;
21831;SDS011;11078;49.872;6.188;2022-08-21T09:58:34;11.13;;;1.80;;
21831;SDS011;11078;49.872;6.188;2022-08-21T10:01:03;3.20;;;1.30;;
21831;SDS011;11078;49.872;6.188;2022-08-21T10:03:30;4.88;;;1.35;;
21831;SDS011;11078;49.872;6.188;2022-08-21T10:06:02;4.43;;;1.60;;
21831;SDS011;11078;49.872;6.188;2022-08-21T10:08:33;3.97;;;1.50;;
21831;SDS011;11078;49.872;6.188;2022-08-21T10:11:02;3.72;;;1.65;;
21831;SDS011;11078;49.872;6.188;2022-08-21T10:13:41;2.88;;;1.50;;
21831;SDS011;11078;49.872;6.188;2022-08-21T10:16:28;2.00;;;1.35;;
21831;SDS011;11078;49.872;6.188;2022-08-21T10:19:11;2.85;;;1.42;;
21831;SDS011;11078;49.872;6.188;2022-08-21T10:22:07;1.98;;;1.17;;
21831;SDS011;11078;49.872;6.188;2022-08-21T10:24:52;5.82;;;1.50;;
21831;SDS011;11078;49.872;6.188;2022-08-21T10:27:37;2.95;;;1.38;;
21831;SDS011;11078;49.872;6.188;2022-08-21T10:30:14;7.85;;;1.45;;
21831;SDS011;11078;49.872;6.188;2022-08-21T10:35:51;6.55;;;1.13;;
21831;SDS011;11078;49.872;6.188;2022-08-21T10:38:40;2.88;;;1.38;;
21831;SDS011;11078;49.872;6.188;2022-08-21T10:41:22;3.70;;;1.20;;
21831;SDS011;11078;49.872;6.188;2022-08-21T10:44:05;3.38;;;1.23;;
21831;SDS011;11078;49.872;6.188;2022-08-21T10:49:34;4.85;;;1.48;;
21831;SDS011;11078;49.872;6.188;2022-08-21T10:52:14;4.20;;;1.15;;
21831;SDS011;11078;49.872;6.188;2022-08-21T10:55:04;3.47;;;1.23;;
21831;SDS011;11078;49.872;6.188;2022-08-21T10:57:40;3.38;;;1.48;;
21831;SDS011;11078;49.872;6.188;2022-08-21T11:00:15;5.30;;;1.80;;
21831;SDS011;11078;49.872;6.188;2022-08-21T11:02:47;4.50;;;1.10;;
21831;SDS011;11078;49.872;6.188;2022-08-21T11:05:21;4.10;;;1.25;;
21831;SDS011;11078;49.872;6.188;2022-08-21T11:07:55;3.45;;;1.33;;
21831;SDS011;11078;49.872;6.188;2022-08-21T11:10:33;3.40;;;1.13;;
21831;SDS011;11078;49.872;6.188;2022-08-21T11:13:19;3.58;;;1.48;;
21831;SDS011;11078;49.872;6.188;2022-08-21T11:15:56;3.30;;;1.65;;
21831;SDS011;11078;49.872;6.188;2022-08-21T11:18:40;6.03;;;1.23;;
21831;SDS011;11078;49.872;6.188;2022-08-21T11:24:00;4.65;;;1.15;;
21831;SDS011;11078;49.872;6.188;2022-08-21T11:26:45;4.32;;;1.13;;
21831;SDS011;11078;49.872;6.188;2022-08-21T11:32:14;4.30;;;1.33;;
21831;SDS011;11078;49.872;6.188;2022-08-21T11:41:00;2.25;;;1.27;;
21831;SDS011;11078;49.872;6.188;2022-08-21T11:43:41;2.78;;;1.20;;
21831;SDS011;11078;49.872;6.188;2022-08-21T11:46:15;3.38;;;1.10;;
21831;SDS011;11078;49.872;6.188;2022-08-21T11:49:06;2.70;;;1.48;;
21831;SDS011;11078;49.872;6.188;2022-08-21T11:52:16;4.65;;;1.52;;
21831;SDS011;11078;49.872;6.188;2022-08-21T11:54:53;2.50;;;1.00;;
21831;SDS011;11078;49.872;6.188;2022-08-21T11:57:34;2.35;;;1.10;;
21831;SDS011;11078;49.872;6.188;2022-08-21T12:00:12;4.85;;;1.17;;
21831;SDS011;11078;49.872;6.188;2022-08-21T12:03:05;2.97;;;1.13;;
21831;SDS011;11078;49.872;6.188;2022-08-21T12:05:41;2.60;;;1.13;;
21831;SDS011;11078;49.872;6.188;2022-08-21T12:08:13;3.45;;;1.02;;
21831;SDS011;11078;49.872;6.188;2022-08-21T12:13:36;1.92;;;1.10;;
21831;SDS011;11078;49.872;6.188;2022-08-21T12:16:07;2.22;;;0.98;;
21831;SDS011;11078;49.872;6.188;2022-08-21T12:18:36;1.65;;;0.98;;
21831;SDS011;11078;49.872;6.188;2022-08-21T12:21:15;2.85;;;1.15;;
21831;SDS011;11078;49.872;6.188;2022-08-21T12:29:26;2.30;;;1.20;;
21831;SDS011;11078;49.872;6.188;2022-08-21T12:32:02;3.35;;;1.13;;
21831;SDS011;11078;49.872;6.188;2022-08-21T12:34:50;0.93;;;0.80;;
21831;SDS011;11078;49.872;6.188;2022-08-21T12:37:45;4.40;;;1.10;;
21831;SDS011;11078;49.872;6.188;2022-08-21T12:40:19;2.10;;;1.27;;
21831;SDS011;11078;49.872;6.188;2022-08-21T12:42:52;4.35;;;0.95;;
21831;SDS011;11078;49.872;6.188;2022-08-21T12:45:26;2.15;;;0.88;;
21831;SDS011;11078;49.872;6.188;2022-08-21T12:48:00;2.75;;;1.02;;
21831;SDS011;11078;49.872;6.188;2022-08-21T12:50:45;3.45;;;1.08;;
21831;SDS011;11078;49.872;6.188;2022-08-21T12:53:28;4.88;;;1.20;;
21831;SDS011;11078;49.872;6.188;2022-08-21T12:56:04;2.08;;;1.17;;
21831;SDS011;11078;49.872;6.188;2022-08-21T12:58:35;3.70;;;1.15;;
21831;SDS011;11078;49.872;6.188;2022-08-21T13:01:03;1.98;;;1.10;;
21831;SDS011;11078;49.872;6.188;2022-08-21T13:03:34;4.32;;;0.98;;
21831;SDS011;11078;49.872;6.188;2022-08-21T13:06:04;2.60;;;1.10;;
21831;SDS011;11078;49.872;6.188;2022-08-21T13:08:31;3.00;;;0.95;;
21831;SDS011;11078;49.872;6.188;2022-08-21T13:11:02;3.00;;;1.08;;
21831;SDS011;11078;49.872;6.188;2022-08-21T13:13:31;2.55;;;0.98;;
21831;SDS011;11078;49.872;6.188;2022-08-21T13:15:59;4.90;;;1.00;;
21831;SDS011;11078;49.872;6.188;2022-08-21T13:18:30;1.90;;;1.00;;
21831;SDS011;11078;49.872;6.188;2022-08-21T13:23:40;4.00;;;0.95;;
21831;SDS011;11078;49.872;6.188;2022-08-21T13:26:15;1.33;;;0.93;;
21831;SDS011;11078;49.872;6.188;2022-08-21T13:28:43;1.80;;;0.98;;
21831;SDS011;11078;49.872;6.188;2022-08-21T13:31:12;5.63;;;1.20;;
21831;SDS011;11078;49.872;6.188;2022-08-21T13:33:46;2.92;;;1.10;;
21831;SDS011;11078;49.872;6.188;2022-08-21T13:36:17;5.70;;;1.30;;
21831;SDS011;11078;49.872;6.188;2022-08-21T13:38:54;3.83;;;1.08;;
21831;SDS011;11078;49.872;6.188;2022-08-21T13:41:22;3.80;;;1.30;;
21831;SDS011;11078;49.872;6.188;2022-08-21T13:44:01;1.70;;;1.08;;
21831;SDS011;11078;49.872;6.188;2022-08-21T13:46:30;2.28;;;1.02;;
21831;SDS011;11078;49.872;6.188;2022-08-21T13:49:00;1.88;;;1.00;;
21831;SDS011;11078;49.872;6.188;2022-08-21T13:51:28;2.83;;;1.25;;
21831;SDS011;11078;49.872;6.188;2022-08-21T13:53:56;2.95;;;1.35;;
21831;SDS011;11078;49.872;6.188;2022-08-21T13:56:27;2.15;;;1.00;;
21831;SDS011;11078;49.872;6.188;2022-08-21T13:58:56;5.07;;;1.10;;
21831;SDS011;11078;49.872;6.188;2022-08-21T14:04:33;2.33;;;1.15;;
21831;SDS011;11078;49.872;6.188;2022-08-21T14:07:02;2.08;;;1.00;;
21831;SDS011;11078;49.872;6.188;2022-08-21T14:09:43;2.92;;;0.90;;
21831;SDS011;11078;49.872;6.188;2022-08-21T14:12:15;3.75;;;1.00;;
21831;SDS011;11078;49.872;6.188;2022-08-21T14:14:44;2.97;;;1.05;;
21831;SDS011;11078;49.872;6.188;2022-08-21T14:17:13;3.70;;;1.10;;
21831;SDS011;11078;49.872;6.188;2022-08-21T14:19:51;1.65;;;1.15;;
21831;SDS011;11078;49.872;6.188;2022-08-21T14:25:10;2.65;;;0.90;;
21831;SDS011;11078;49.872;6.188;2022-08-21T14:27:54;1.50;;;0.85;;
21831;SDS011;11078;49.872;6.188;2022-08-21T14:30:29;1.67;;;1.10;;
21831;SDS011;11078;49.872;6.188;2022-08-21T14:32:58;2.35;;;1.08;;
21831;SDS011;11078;49.872;6.188;2022-08-21T14:35:25;1.58;;;1.10;;
21831;SDS011;11078;49.872;6.188;2022-08-21T14:37:52;2.67;;;1.10;;
21831;SDS011;11078;49.872;6.188;2022-08-21T14:40:19;5.38;;;0.90;;
21831;SDS011;11078;49.872;6.188;2022-08-21T14:42:47;1.85;;;1.05;;
21831;SDS011;11078;49.872;6.188;2022-08-21T14:47:57;1.48;;;0.80;;
21831;SDS011;11078;49.872;6.188;2022-08-21T14:50:24;3.50;;;0.90;;
21831;SDS011;11078;49.872;6.188;2022-08-21T14:52:50;1.52;;;1.00;;
21831;SDS011;11078;49.872;6.188;2022-08-21T14:55:17;3.17;;;1.50;;
21831;SDS011;11078;49.872;6.188;2022-08-21T14:57:44;3.85;;;1.10;;
21831;SDS011;11078;49.872;6.188;2022-08-21T15:00:13;1.85;;;0.85;;
21831;SDS011;11078;49.872;6.188;2022-08-21T15:02:42;3.60;;;1.10;;
21831;SDS011;11078;49.872;6.188;2022-08-21T15:05:08;3.10;;;1.20;;
21831;SDS011;11078;49.872;6.188;2022-08-21T15:07:35;3.08;;;0.85;;
21831;SDS011;11078;49.872;6.188;2022-08-21T15:10:01;2.97;;;1.30;;
21831;SDS011;11078;49.872;6.188;2022-08-21T15:12:28;6.30;;;1.13;;
21831;SDS011;11078;49.872;6.188;2022-08-21T15:14:54;2.67;;;0.82;;
21831;SDS011;11078;49.872;6.188;2022-08-21T15:17:20;2.63;;;1.00;;
21831;SDS011;11078;49.872;6.188;2022-08-21T15:19:46;3.53;;;1.55;;
21831;SDS011;11078;49.872;6.188;2022-08-21T15:22:13;1.92;;;0.88;;
21831;SDS011;11078;49.872;6.188;2022-08-21T15:24:39;2.53;;;1.30;;
21831;SDS011;11078;49.872;6.188;2022-08-21T15:27:06;4.10;;;1.08;;
21831;SDS011;11078;49.872;6.188;2022-08-21T15:29:34;2.78;;;1.13;;
21831;SDS011;11078;49.872;6.188;2022-08-21T15:32:01;2.40;;;1.10;;
21831;SDS011;11078;49.872;6.188;2022-08-21T15:34:40;5.53;;;1.65;;
21831;SDS011;11078;49.872;6.188;2022-08-21T15:37:06;1.67;;;0.88;;
21831;SDS011;11078;49.872;6.188;2022-08-21T15:39:33;2.95;;;1.00;;
21831;SDS011;11078;49.872;6.188;2022-08-21T15:42:00;1.95;;;1.05;;
21831;SDS011;11078;49.872;6.188;2022-08-21T15:44:27;1.88;;;0.88;;
21831;SDS011;11078;49.872;6.188;2022-08-21T15:46:54;2.65;;;1.02;;
21831;SDS011;11078;49.872;6.188;2022-08-21T15:49:21;1.55;;;1.00;;
21831;SDS011;11078;49.872;6.188;2022-08-21T15:51:47;0.95;;;0.85;;
21831;SDS011;11078;49.872;6.188;2022-08-21T15:54:13;2.33;;;1.05;;
21831;SDS011;11078;49.872;6.188;2022-08-21T15:56:40;2.13;;;1.20;;
21831;SDS011;11078;49.872;6.188;2022-08-21T15:59:13;2.45;;;1.10;;
21831;SDS011;11078;49.872;6.188;2022-08-21T16:01:42;1.92;;;0.88;;